Time;durP1;ratioP1;P1;durP2;ratioP2;P2;SDS_P1;SDS_P2;PMS_P1;PMS_P2;Temp;Humidity;BMP_temperature;BMP_pressure;BME280_temperature;BME280_humidity;BME280_pressure;Samples;Min_cycle;Max_cycle;Signal;HPM_P1;HPM_P2
2022/10/13 00:01:17;;;;;;;16.95;10.60;;;;;;;15.52;54.65;101823.75;5053190;28;20052;-72
2022/10/13 00:03:45;;;;;;;16.80;10.77;;;;;;;15.53;55.04;101819.19;5053338;28;20049;-72
2022/10/13 00:06:24;;;;;;;19.88;10.80;;;;;;;15.53;54.79;101820.06;5051884;28;20059;-72
2022/10/13 00:08:51;;;;;;;17.92;11.15;;;;;;;15.54;55.00;101813.66;5053282;28;20036;-72
2022/10/13 00:11:24;;;;;;;20.85;10.80;;;;;;;15.54;55.07;101807.38;5053229;28;20049;-72
2022/10/13 00:13:58;;;;;;;18.08;11.13;;;;;;;15.54;55.18;101800.13;5053350;28;20028;-73
2022/10/13 00:16:28;;;;;;;18.65;10.40;;;;;;;15.56;55.12;101795.44;5051727;28;20091;-71
2022/10/13 00:18:55;;;;;;;19.65;10.13;;;;;;;15.57;55.22;101802.63;5053438;28;20063;-71
2022/10/13 00:21:25;;;;;;;16.25;10.25;;;;;;;15.58;54.76;101809.75;5052962;28;20041;-71
2022/10/13 00:23:56;;;;;;;18.42;10.77;;;;;;;15.59;54.91;101802.50;5053205;28;20438;-73
2022/10/13 00:26:24;;;;;;;19.13;10.52;;;;;;;15.61;54.95;101794.28;5052610;28;20043;-72
2022/10/13 00:28:52;;;;;;;15.65;10.40;;;;;;;15.61;54.99;101787.03;5052929;28;20041;-71
2022/10/13 00:31:27;;;;;;;17.75;10.68;;;;;;;15.63;55.07;101787.78;5052227;28;20051;-71
2022/10/13 00:34:00;;;;;;;17.75;10.75;;;;;;;15.65;55.25;101779.53;5053147;28;20052;-72
2022/10/13 00:36:28;;;;;;;15.07;10.45;;;;;;;15.66;54.80;101781.25;5052622;28;20099;-72
2022/10/13 00:38:55;;;;;;;17.48;11.48;;;;;;;15.69;55.07;101779.19;5052999;28;20438;-71
2022/10/13 00:41:22;;;;;;;17.38;10.80;;;;;;;15.68;55.21;101780.16;5052696;28;20572;-71
2022/10/13 00:43:59;;;;;;;15.88;10.07;;;;;;;15.69;55.24;101784.59;5052443;28;20036;-70
2022/10/13 00:46:31;;;;;;;17.77;10.45;;;;;;;15.69;55.21;101787.31;5052674;28;20041;-71
2022/10/13 00:49:03;;;;;;;16.75;10.43;;;;;;;15.69;55.13;101784.59;5051659;28;20044;-72
2022/10/13 00:51:33;;;;;;;20.77;10.30;;;;;;;15.68;55.43;101785.56;5052773;28;20287;-71
2022/10/13 00:54:06;;;;;;;19.33;10.45;;;;;;;15.66;55.41;101782.13;5052753;28;20032;-72
2022/10/13 00:56:36;;;;;;;14.82;10.70;;;;;;;15.67;55.60;101783.84;5052049;28;20053;-71
2022/10/13 00:59:10;;;;;;;16.67;10.73;;;;;;;15.66;55.28;101782.13;5052654;28;20033;-71
2022/10/13 01:01:39;;;;;;;17.63;10.75;;;;;;;15.67;55.60;101786.56;5051656;28;20032;-71
2022/10/13 01:04:10;;;;;;;19.38;11.45;;;;;;;15.67;55.75;101783.00;5052696;28;20037;-71
2022/10/13 01:06:37;;;;;;;19.25;11.50;;;;;;;15.68;55.43;101791.00;5052399;28;20049;-71
2022/10/13 01:09:06;;;;;;;17.33;10.55;;;;;;;15.66;55.58;101784.84;5052136;28;20024;-71
2022/10/13 01:11:51;;;;;;;18.83;10.77;;;;;;;15.65;55.49;101779.53;5051938;28;20075;-71
2022/10/13 01:14:40;;;;;;;;;;;;;;;15.64;55.29;101784.09;5052826;28;20136;-71
2022/10/13 01:17:24;;;;;;;18.75;10.90;;;;;;;15.66;55.36;101778.56;5051261;28;19921;-71
2022/10/13 01:20:13;;;;;;;13.35;9.70;;;;;;;15.66;55.58;101781.25;5052514;28;20053;-71
2022/10/13 01:22:59;;;;;;;17.73;10.45;;;;;;;15.66;55.39;101776.72;5052022;28;20449;-71
2022/10/13 01:25:30;;;;;;;16.15;10.18;;;;;;;15.65;55.51;101779.53;5052309;28;20490;-71
2022/10/13 01:28:02;;;;;;;15.27;10.38;;;;;;;15.66;55.58;101775.84;5050958;28;20048;-72
2022/10/13 01:30:36;;;;;;;16.38;10.88;;;;;;;15.68;55.59;101779.28;5051657;28;20067;-71
2022/10/13 01:33:18;;;;;;;13.93;10.18;;;;;;;15.69;55.97;101773.75;5051487;28;20082;-71
2022/10/13 01:36:10;;;;;;;16.83;10.05;;;;;;;15.69;55.95;101767.47;5051877;28;20295;-71
2022/10/13 01:39:10;;;;;;;17.20;10.43;;;;;;;15.71;55.68;101770.94;5050654;28;20129;-71
2022/10/13 01:41:45;;;;;;;18.42;10.50;;;;;;;15.74;55.80;101771.56;5038937;28;20076;-71
2022/10/13 01:44:44;;;;;;;15.48;10.40;;;;;;;15.76;56.12;101774.16;5050104;28;20044;-71
2022/10/13 01:47:14;;;;;;;17.45;10.68;;;;;;;15.77;55.71;101771.31;5046559;28;20049;-71
2022/10/13 01:49:43;;;;;;;16.60;10.40;;;;;;;15.75;55.78;101767.88;5051265;28;20048;-71
2022/10/13 01:52:16;;;;;;;16.85;10.50;;;;;;;15.76;55.91;101766.03;5051463;28;20422;-71
2022/10/13 01:54:52;;;;;;;16.30;10.52;;;;;;;15.78;56.06;101762.22;5051384;28;20045;-70
2022/10/13 01:57:32;;;;;;;16.17;10.13;;;;;;;15.81;55.88;101761.09;5050791;28;20090;-72
2022/10/13 02:00:15;;;;;;;20.23;10.75;;;;;;;15.84;56.42;101767.16;5050957;28;20106;-71
2022/10/13 02:02:50;;;;;;;17.65;10.02;;;;;;;15.86;55.87;101758.91;5051393;28;20099;-72
2022/10/13 02:05:26;;;;;;;17.60;10.05;;;;;;;15.87;56.36;101757.91;5050229;28;20041;-72
2022/10/13 02:08:00;;;;;;;;;;;;;;;15.89;56.16;101747.81;5051681;28;20604;-72
2022/10/13 02:10:46;;;;;;;17.52;9.65;;;;;;;15.94;56.02;101748.31;5049717;28;19999;-72
2022/10/13 02:13:16;;;;;;;15.77;9.77;;;;;;;15.96;56.09;101746.34;5050287;28;20569;-72
2022/10/13 02:15:51;;;;;;;19.10;9.93;;;;;;;15.96;56.46;101737.34;5051400;28;20106;-71
2022/10/13 02:18:22;;;;;;;15.85;10.52;;;;;;;15.97;56.09;101739.94;5049650;28;20106;-72
2022/10/13 02:20:49;;;;;;;13.32;9.07;;;;;;;15.97;56.30;101742.66;5050943;28;20075;-71
2022/10/13 02:23:17;;;;;;;18.80;10.73;;;;;;;15.98;56.56;101741.66;5050815;28;20029;-72
2022/10/13 02:25:49;;;;;;;13.43;9.68;;;;;;;15.98;56.33;101738.97;5051265;28;20040;-72
2022/10/13 02:28:17;;;;;;;17.70;10.63;;;;;;;16.01;56.45;101735.16;5049912;28;20041;-71
2022/10/13 02:30:45;;;;;;;17.02;10.68;;;;;;;16.02;56.61;101726.91;5049688;28;20140;-71
2022/10/13 02:33:13;;;;;;;15.43;10.27;;;;;;;16.03;56.86;101739.47;5051056;28;20041;-71
2022/10/13 02:35:40;;;;;;;17.20;10.23;;;;;;;16.06;56.42;101728.38;5051198;28;20068;-71
2022/10/13 02:38:07;;;;;;;17.55;10.05;;;;;;;16.09;56.40;101727.25;5050474;28;20064;-71
2022/10/13 02:40:34;;;;;;;18.08;10.13;;;;;;;16.12;56.40;101727.00;5049517;28;20061;-70
2022/10/13 02:43:01;;;;;;;14.50;9.98;;;;;;;16.15;56.76;101721.34;5050638;28;20045;-71
2022/10/13 02:45:27;;;;;;;14.90;9.98;;;;;;;16.15;56.56;101718.63;5050517;28;20568;-71
2022/10/13 02:47:54;;;;;;;17.38;10.88;;;;;;;16.16;56.92;101723.06;5049403;28;20104;-71
2022/10/13 02:50:20;;;;;;;15.98;9.82;;;;;;;16.17;56.59;101728.38;5051030;28;20037;-71
2022/10/13 02:52:49;;;;;;;15.18;9.10;;;;;;;16.18;56.87;101721.09;5049190;28;20044;-71
2022/10/13 02:55:16;;;;;;;14.80;10.10;;;;;;;16.20;56.55;101719.13;5050660;28;20253;-71
2022/10/13 02:57:44;;;;;;;17.67;10.88;;;;;;;16.20;56.69;101711.00;5050546;28;20517;-71
2022/10/13 03:00:11;;;;;;;13.98;10.15;;;;;;;16.23;56.80;101712.59;5050601;28;20445;-72
2022/10/13 03:02:38;;;;;;;19.27;11.00;;;;;;;16.24;56.38;101709.75;5050380;28;20534;-71
2022/10/13 03:05:09;;;;;;;17.15;9.82;;;;;;;16.23;56.43;101705.31;5050739;28;20037;-73
2022/10/13 03:07:36;;;;;;;14.98;9.98;;;;;;;16.25;56.36;101705.22;5050527;28;20376;-73
2022/10/13 03:10:03;;;;;;;18.20;10.00;;;;;;;16.25;56.56;101706.06;5050261;28;20075;-72
2022/10/13 03:12:30;;;;;;;20.77;11.18;;;;;;;16.27;56.41;101708.66;5049102;28;20041;-71
2022/10/13 03:15:21;;;;;;;17.50;10.30;;;;;;;16.24;56.68;101693.50;5050638;28;20071;-71
2022/10/13 03:17:48;;;;;;;18.35;10.15;;;;;;;16.25;56.37;101697.94;5050285;28;20041;-72
2022/10/13 03:20:15;;;;;;;16.10;10.90;;;;;;;16.26;56.67;101699.66;5050287;28;20068;-72
2022/10/13 03:22:41;;;;;;;18.08;10.27;;;;;;;16.26;56.25;101691.53;5050343;28;20434;-72
2022/10/13 03:25:14;;;;;;;19.65;9.50;;;;;;;16.25;56.34;101686.22;5052254;28;20059;-71
2022/10/13 03:27:42;;;;;;;15.73;10.02;;;;;;;16.21;56.63;101678.34;5053846;28;20032;-72
2022/10/13 03:30:09;;;;;;;17.05;10.32;;;;;;;16.22;56.66;101687.34;5054563;28;20441;-72
2022/10/13 03:32:37;;;;;;;16.45;10.60;;;;;;;16.21;56.70;101682.91;5053801;28;20025;-70
2022/10/13 03:35:08;;;;;;;13.10;9.07;;;;;;;16.20;56.43;101692.88;5053081;28;20045;-71
2022/10/13 03:37:34;;;;;;;14.60;9.23;;;;;;;16.21;56.63;101686.47;5053389;28;20053;-72
2022/10/13 03:40:01;;;;;;;15.55;9.57;;;;;;;16.22;56.61;101690.06;5054033;28;20121;-71
2022/10/13 03:42:28;;;;;;;12.95;9.77;;;;;;;16.19;56.59;101685.75;5053401;28;20134;-71
2022/10/13 03:44:58;;;;;;;14.00;9.65;;;;;;;16.19;56.51;101684.88;5053975;28;20033;-72
2022/10/13 03:47:25;;;;;;;16.73;10.13;;;;;;;16.20;56.89;101690.19;5053600;28;20056;-72
2022/10/13 03:49:54;;;;;;;13.35;10.10;;;;;;;16.18;56.43;101681.31;5052247;28;20033;-71
2022/10/13 03:52:21;;;;;;;16.65;9.13;;;;;;;16.17;56.90;101687.72;5053567;28;20041;-71
2022/10/13 03:54:50;;;;;;;16.00;10.30;;;;;;;16.17;56.63;101685.00;5053659;28;20041;-71
2022/10/13 03:57:16;;;;;;;13.15;9.57;;;;;;;16.17;56.71;101685.00;5053630;28;20395;-72
2022/10/13 03:59:43;;;;;;;12.52;9.25;;;;;;;16.18;56.87;101681.31;5053367;28;20064;-71
2022/10/13 04:02:09;;;;;;;16.98;9.48;;;;;;;16.20;56.79;101681.19;5053589;28;20114;-70
2022/10/13 04:04:39;;;;;;;19.80;10.38;;;;;;;16.20;56.55;101681.19;5053764;28;20041;-71
2022/10/13 04:07:06;;;;;;;22.67;9.77;;;;;;;16.19;56.51;101674.91;5053296;28;20071;-70
2022/10/13 04:09:33;;;;;;;14.80;9.30;;;;;;;16.18;56.80;101677.75;5052071;28;20045;-71
2022/10/13 04:12:00;;;;;;;15.77;9.93;;;;;;;16.18;56.86;101672.31;5053646;28;20064;-71
2022/10/13 04:14:27;;;;;;;12.57;9.10;;;;;;;16.17;57.00;101674.16;5053590;28;20103;-71
2022/10/13 04:17:00;;;;;;;17.20;9.65;;;;;;;16.18;56.79;101675.03;5052990;28;20076;-70
2022/10/13 04:19:27;;;;;;;13.88;9.10;;;;;;;16.17;57.00;101662.47;5053842;28;20044;-72
2022/10/13 04:21:53;;;;;;;13.35;9.15;;;;;;;16.16;57.00;101671.59;5053167;28;20044;-71
2022/10/13 04:24:21;;;;;;;16.65;10.30;;;;;;;16.14;56.92;101668.13;5053364;28;20491;-71
2022/10/13 04:26:47;;;;;;;14.15;8.93;;;;;;;16.13;56.65;101666.41;5052702;28;20086;-71
2022/10/13 04:29:14;;;;;;;16.33;9.57;;;;;;;16.12;57.30;101661.97;5052562;28;20446;-71
2022/10/13 04:31:42;;;;;;;16.42;10.25;;;;;;;16.11;57.08;101647.56;5052992;28;20138;-71
2022/10/13 04:34:11;;;;;;;16.42;10.40;;;;;;;16.10;57.31;101653.97;5051953;28;20045;-71
2022/10/13 04:36:38;;;;;;;15.10;9.00;;;;;;;16.10;57.01;101648.56;5051646;28;20099;-71
2022/10/13 04:39:04;;;;;;;17.10;9.77;;;;;;;16.11;57.31;101646.72;5053046;28;20033;-71
2022/10/13 04:41:31;;;;;;;14.18;9.10;;;;;;;16.12;57.37;101643.00;5052669;28;20029;-72
2022/10/13 04:44:02;;;;;;;13.70;9.05;;;;;;;16.12;57.06;101643.00;5052867;28;20090;-72
2022/10/13 04:46:28;;;;;;;14.70;9.13;;;;;;;16.14;57.51;101641.03;5052098;28;20099;-72
2022/10/13 04:48:55;;;;;;;14.23;9.18;;;;;;;16.15;57.11;101642.75;5052446;28;20063;-72
2022/10/13 04:51:27;;;;;;;14.75;9.30;;;;;;;16.18;57.18;101650.63;5052551;28;20051;-72
2022/10/13 04:54:00;;;;;;;16.10;9.80;;;;;;;16.18;57.53;101640.66;5052696;28;20499;-72
2022/10/13 04:56:27;;;;;;;14.27;9.73;;;;;;;16.19;57.25;101644.22;5052327;28;20084;-71
2022/10/13 04:58:58;;;;;;;21.92;10.20;;;;;;;16.18;57.28;101632.53;5052817;28;20342;-71
2022/10/13 05:01:25;;;;;;;17.73;10.13;;;;;;;16.18;57.14;101634.38;5052211;28;20560;-72
2022/10/13 05:04:00;;;;;;;13.20;9.50;;;;;;;16.16;57.43;101630.94;5052223;28;20069;-72
2022/10/13 05:06:29;;;;;;;14.25;9.93;;;;;;;16.17;57.16;101638.06;5032628;28;20372;-70
2022/10/13 05:08:56;;;;;;;17.13;10.50;;;;;;;16.17;57.45;101628.09;5032628;28;20277;-71
2022/10/13 05:11:25;;;;;;;15.13;10.27;;;;;;;16.20;57.30;101632.41;5036310;28;20037;-72
2022/10/13 05:13:56;;;;;;;15.70;10.13;;;;;;;16.21;57.39;101628.69;5052085;28;20033;-71
2022/10/13 05:16:23;;;;;;;13.95;10.43;;;;;;;16.23;57.14;101631.28;5051843;28;20099;-71
2022/10/13 05:18:52;;;;;;;15.98;9.27;;;;;;;16.25;57.09;101627.47;5052004;28;20545;-72
2022/10/13 05:21:25;;;;;;;16.23;10.40;;;;;;;16.25;57.47;101635.59;5051657;28;20095;-72
2022/10/13 05:23:55;;;;;;;18.00;9.70;;;;;;;16.26;57.19;101633.75;5051889;28;20376;-72
2022/10/13 05:26:27;;;;;;;17.27;9.25;;;;;;;16.26;57.11;101640.03;5051907;28;20107;-71
2022/10/13 05:28:55;;;;;;;17.88;10.10;;;;;;;16.26;57.19;101641.88;5052541;28;20491;-72
2022/10/13 05:31:25;;;;;;;17.23;11.32;;;;;;;16.26;57.28;101625.63;5051635;28;20043;-72
2022/10/13 05:33:55;;;;;;;15.23;10.13;;;;;;;16.25;57.21;101623.88;5051643;28;20106;-71
2022/10/13 05:36:25;;;;;;;20.27;11.00;;;;;;;16.26;57.13;101631.03;5050325;28;20049;-72
2022/10/13 05:38:53;;;;;;;17.55;10.68;;;;;;;16.25;57.17;101638.31;5052007;28;20041;-72
2022/10/13 05:41:22;;;;;;;12.45;9.60;;;;;;;16.26;57.35;101639.16;5051508;28;20037;-72
2022/10/13 05:43:57;;;;;;;17.73;9.68;;;;;;;16.27;57.15;101654.44;5051354;28;20068;-73
2022/10/13 05:46:24;;;;;;;20.30;11.15;;;;;;;16.25;57.09;101641.00;5051736;28;20037;-72
2022/10/13 05:48:51;;;;;;;21.90;11.27;;;;;;;16.22;57.36;101652.09;5050727;28;20064;-71
2022/10/13 05:51:27;;;;;;;23.60;10.70;;;;;;;16.20;57.17;101656.78;5051350;28;20106;-70
2022/10/13 05:54:19;;;;;;;18.50;11.10;;;;;;;16.18;57.50;101651.50;5051180;28;20457;-73
2022/10/13 05:56:54;;;;;;;17.00;10.50;;;;;;;16.17;57.54;101638.06;5051065;28;20506;-72
2022/10/13 05:59:23;;;;;;;21.60;11.15;;;;;;;16.15;57.57;101645.47;5051348;28;20044;-71
2022/10/13 06:01:53;;;;;;;18.70;11.38;;;;;;;16.14;57.27;101638.31;5051047;28;20044;-69
2022/10/13 06:04:40;;;;;;;19.17;10.85;;;;;;;16.13;57.67;101626.63;5051578;28;20045;-69
2022/10/13 06:07:08;;;;;;;17.45;11.60;;;;;;;16.15;57.46;101630.06;5051173;28;20499;-69
2022/10/13 06:09:38;;;;;;;16.52;10.63;;;;;;;16.13;57.67;101625.75;5049982;28;20051;-69
2022/10/13 06:12:06;;;;;;;18.65;11.07;;;;;;;16.13;57.34;101632.03;5048527;28;20497;-70
2022/10/13 06:14:34;;;;;;;19.95;11.27;;;;;;;16.13;57.41;101625.75;5050984;28;20048;-69
2022/10/13 06:17:04;;;;;;;19.45;11.27;;;;;;;16.12;57.70;101630.31;5050636;28;20563;-69
2022/10/13 06:19:31;;;;;;;17.00;11.25;;;;;;;16.14;57.80;101628.34;5049774;28;20153;-69
2022/10/13 06:22:05;;;;;;;23.85;11.43;;;;;;;16.15;57.88;101623.78;5049429;28;20060;-69
2022/10/13 06:24:34;;;;;;;18.80;11.65;;;;;;;16.16;57.46;101622.81;5050663;28;20503;-69
2022/10/13 06:27:02;;;;;;;21.48;12.13;;;;;;;16.17;57.58;101627.22;5051051;28;20037;-69
2022/10/13 06:29:29;;;;;;;17.75;11.13;;;;;;;16.19;58.15;101623.41;5050794;28;20045;-69
2022/10/13 06:31:55;;;;;;;19.35;12.02;;;;;;;16.23;57.66;101621.31;5050340;28;20048;-69
2022/10/13 06:34:22;;;;;;;17.98;11.48;;;;;;;16.26;58.04;101628.31;5050660;28;20530;-69
2022/10/13 06:36:48;;;;;;;19.92;12.85;;;;;;;16.29;58.05;101625.38;5051054;28;20029;-69
2022/10/13 06:39:14;;;;;;;18.63;11.55;;;;;;;16.30;57.73;101622.53;5050764;28;20041;-70
2022/10/13 06:41:41;;;;;;;15.65;11.32;;;;;;;16.33;58.07;101622.28;5049953;28;20044;-70
2022/10/13 06:44:11;;;;;;;17.33;11.30;;;;;;;16.36;58.00;101615.75;5050887;28;20084;-71
2022/10/13 06:46:38;;;;;;;17.25;11.23;;;;;;;16.39;58.23;101610.94;5050313;28;20119;-70
2022/10/13 06:49:04;;;;;;;20.75;11.65;;;;;;;16.43;58.35;101612.41;5050609;28;20048;-70
2022/10/13 06:51:31;;;;;;;18.00;11.35;;;;;;;16.46;57.89;101616.72;5050482;28;20040;-69
2022/10/13 06:54:02;;;;;;;19.77;12.07;;;;;;;16.49;58.00;101620.03;5049450;28;20041;-69
2022/10/13 06:56:29;;;;;;;17.35;11.52;;;;;;;16.53;57.99;101612.50;5050742;28;20044;-69
2022/10/13 06:58:57;;;;;;;16.92;10.85;;;;;;;16.53;58.12;101624.22;5049432;28;20136;-69
2022/10/13 07:01:24;;;;;;;20.05;12.70;;;;;;;16.57;58.30;101630.22;5053367;28;20053;-70
2022/10/13 07:06:20;;;;;;;18.42;11.90;;;;;;;16.66;58.20;101624.06;5054362;28;20053;-69
2022/10/13 07:08:49;;;;;;;25.20;12.57;;;;;;;16.68;58.17;101619.38;5053463;28;20124;-69
2022/10/13 07:11:17;;;;;;;20.08;11.55;;;;;;;16.69;57.68;101612.97;5052747;28;20056;-69
2022/10/13 07:13:53;;;;;;;18.05;11.60;;;;;;;16.71;57.84;101618.25;5053152;28;20041;-70
2022/10/13 07:16:19;;;;;;;19.10;11.75;;;;;;;16.73;57.91;101616.28;5053175;28;20041;-69
2022/10/13 07:18:47;;;;;;;18.73;11.27;;;;;;;16.71;57.98;101619.13;5054540;28;20062;-70
2022/10/13 07:21:13;;;;;;;15.75;10.95;;;;;;;16.74;58.05;101623.41;5054591;28;20040;-69
2022/10/13 07:23:40;;;;;;;21.02;11.88;;;;;;;16.75;57.91;101617.00;5054069;28;20110;-70
2022/10/13 07:26:08;;;;;;;19.27;11.38;;;;;;;16.77;58.07;101612.31;5054518;28;20098;-70
2022/10/13 07:28:36;;;;;;;16.98;11.30;;;;;;;16.78;58.16;101605.91;5054195;28;20041;-69
2022/10/13 07:31:28;;;;;;;19.17;11.85;;;;;;;16.82;58.08;101619.06;5053657;28;20045;-70
2022/10/13 07:34:00;;;;;;;17.33;11.15;;;;;;;16.86;58.15;101613.38;5051990;28;20107;-70
2022/10/13 07:36:27;;;;;;;18.98;11.82;;;;;;;16.88;57.75;101620.41;5052760;28;20049;-70
2022/10/13 07:38:53;;;;;;;17.35;11.65;;;;;;;16.88;57.64;101625.81;5054426;28;20719;-70
2022/10/13 07:41:20;;;;;;;16.15;11.02;;;;;;;16.91;57.82;101620.13;5053541;28;20033;-70
2022/10/13 07:43:46;;;;;;;19.17;11.10;;;;;;;16.92;58.14;101619.13;5053601;28;20045;-70
2022/10/13 07:46:15;;;;;;;20.40;11.57;;;;;;;16.93;58.00;101626.28;5053681;28;20052;-74
2022/10/13 07:48:41;;;;;;;18.00;11.70;;;;;;;16.95;58.09;101620.72;5053725;28;20037;-69
2022/10/13 07:51:11;;;;;;;22.15;12.90;;;;;;;16.94;57.60;101628.00;5053312;28;20045;-69
2022/10/13 07:53:39;;;;;;;17.90;11.57;;;;;;;16.97;58.08;101621.47;5053817;28;20041;-69
2022/10/13 07:56:08;;;;;;;19.95;12.02;;;;;;;17.02;57.82;101620.06;5053763;28;20075;-70
2022/10/13 07:58:39;;;;;;;16.85;11.32;;;;;;;17.09;58.00;101615.88;5053294;28;20256;-69
2022/10/13 08:01:06;;;;;;;17.08;11.75;;;;;;;17.15;58.27;101618.06;5053055;28;20033;-69
2022/10/13 08:03:37;;;;;;;16.75;11.30;;;;;;;17.22;57.83;101620.22;5052035;28;20060;-70
2022/10/13 08:06:04;;;;;;;19.60;12.43;;;;;;;17.28;57.81;101620.56;5053242;28;20442;-71
2022/10/13 08:08:32;;;;;;;21.60;11.68;;;;;;;17.36;57.89;101617.19;5052194;28;20041;-70
2022/10/13 08:11:04;;;;;;;17.60;11.38;;;;;;;17.41;57.84;101632.06;5051988;28;20348;-71
2022/10/13 08:13:33;;;;;;;19.17;12.27;;;;;;;17.43;57.67;101629.22;5053238;28;20407;-71
2022/10/13 08:16:11;;;;;;;16.50;11.45;;;;;;;17.45;57.58;101622.66;5053461;28;20033;-71
2022/10/13 08:18:38;;;;;;;19.75;12.10;;;;;;;17.48;57.58;101619.69;5051693;28;20045;-70
2022/10/13 08:21:11;;;;;;;19.63;11.93;;;;;;;17.50;57.57;101622.25;5053059;28;20112;-70
2022/10/13 08:24:01;;;;;;;17.23;11.48;;;;;;;17.55;57.36;101611.84;5053239;28;20069;-71
2022/10/13 08:26:28;;;;;;;19.50;11.65;;;;;;;17.57;57.62;101609.84;5053066;28;20094;-70
2022/10/13 08:28:54;;;;;;;16.52;10.90;;;;;;;17.61;57.25;101616.72;5053230;28;20503;-70
2022/10/13 08:31:41;;;;;;;17.13;11.60;;;;;;;17.66;57.23;101606.34;5052638;28;20509;-70
2022/10/13 08:34:10;;;;;;;17.50;10.88;;;;;;;17.70;57.22;101606.94;5051623;28;20037;-72
2022/10/13 08:36:37;;;;;;;18.75;11.57;;;;;;;17.73;57.41;101604.81;5051452;28;20437;-75
2022/10/13 08:39:04;;;;;;;20.92;11.77;;;;;;;17.78;57.60;101605.25;5052878;28;20045;-74
2022/10/13 08:41:36;;;;;;;19.73;11.75;;;;;;;17.85;57.39;101604.75;5052117;28;20079;-75
2022/10/13 08:44:26;;;;;;;19.73;12.27;;;;;;;17.93;57.47;101605.78;5053038;28;20041;-75
2022/10/13 08:47:21;;;;;;;18.80;11.25;;;;;;;18.02;56.97;101601.38;5052659;28;20131;-74
2022/10/13 08:49:48;;;;;;;18.42;12.15;;;;;;;18.08;57.14;101601.66;5052895;28;20041;-75
2022/10/13 08:52:21;;;;;;;19.65;11.07;;;;;;;18.15;57.00;101601.97;5051626;28;20407;-75
2022/10/13 08:54:52;;;;;;;16.73;11.18;;;;;;;18.20;57.03;101599.69;5052608;28;20057;-75
2022/10/13 08:57:19;;;;;;;19.42;11.40;;;;;;;18.22;56.92;101589.53;5050942;28;20486;-75
2022/10/13 08:59:47;;;;;;;19.45;11.73;;;;;;;18.30;56.98;101597.84;5052471;28;20103;-75
2022/10/13 09:02:28;;;;;;;20.42;12.07;;;;;;;18.38;56.79;101600.72;5050619;28;20442;-75
2022/10/13 09:04:59;;;;;;;18.33;11.20;;;;;;;18.50;56.82;101592.44;5050939;28;20252;-74
2022/10/13 09:07:31;;;;;;;21.75;11.45;;;;;;;18.63;56.94;101585.75;5052458;28;20033;-77
2022/10/13 09:09:57;;;;;;;16.25;10.35;;;;;;;18.79;56.60;101581.59;5052250;28;20033;-75
2022/10/13 09:12:26;;;;;;;16.23;10.93;;;;;;;18.92;56.73;101588.47;5050354;28;20040;-76
2022/10/13 09:15:00;;;;;;;17.70;11.02;;;;;;;19.01;56.37;101593.03;5050719;28;20143;-75
2022/10/13 09:17:28;;;;;;;19.67;11.25;;;;;;;19.07;56.01;101588.88;5052073;28;20064;-74
2022/10/13 09:20:15;;;;;;;16.33;11.07;;;;;;;19.13;56.09;101595.59;5052490;28;20036;-73
2022/10/13 09:22:42;;;;;;;16.77;9.77;;;;;;;19.19;55.95;101589.56;5033297;28;20045;-73
2022/10/13 09:25:20;;;;;;;19.38;11.18;;;;;;;19.22;55.89;101587.41;5051593;28;20045;-73
2022/10/13 09:27:58;;;;;;;18.92;10.77;;;;;;;19.29;55.77;101595.84;5050534;28;20037;-73
2022/10/13 09:30:40;;;;;;;17.02;10.57;;;;;;;19.32;55.57;101579.22;5051798;28;20037;-73
2022/10/13 09:33:07;;;;;;;17.13;10.65;;;;;;;19.34;55.52;101578.09;5050769;28;20053;-73
2022/10/13 09:35:40;;;;;;;15.50;10.23;;;;;;;19.36;55.46;101577.94;5040426;28;20049;-74
2022/10/13 09:38:12;;;;;;;14.27;10.18;;;;;;;19.35;55.22;101578.94;5050589;28;20503;-73
2022/10/13 09:40:39;;;;;;;20.23;10.77;;;;;;;19.36;55.46;101575.22;5051597;28;20112;-73
2022/10/13 09:43:26;;;;;;;16.67;10.00;;;;;;;19.36;55.40;101573.34;5051401;28;20336;-73
2022/10/13 09:45:53;;;;;;;16.17;10.10;;;;;;;19.39;55.12;101574.06;5051654;28;20033;-73
2022/10/13 09:48:25;;;;;;;16.40;10.45;;;;;;;19.40;54.93;101582.09;5050501;28;20032;-74
2022/10/13 09:50:54;;;;;;;14.35;10.35;;;;;;;19.40;54.82;101571.19;5051363;28;20049;-73
2022/10/13 09:53:36;;;;;;;18.88;10.23;;;;;;;19.39;55.13;101577.63;5050980;28;20041;-74
2022/10/13 09:56:24;;;;;;;13.48;9.77;;;;;;;19.36;54.74;101572.50;5050051;28;20102;-72
2022/10/13 09:59:06;;;;;;;17.60;10.43;;;;;;;19.35;54.71;101574.34;5050987;28;20110;-75
2022/10/13 10:01:38;;;;;;;16.27;9.50;;;;;;;19.34;54.74;101566.34;5049712;28;20110;-75
2022/10/13 10:04:16;;;;;;;11.18;8.80;;;;;;;19.33;55.07;101570.94;5049837;28;20049;-76
2022/10/13 10:06:45;;;;;;;13.98;9.40;;;;;;;19.34;54.48;101571.78;5051655;28;20124;-76
2022/10/13 10:09:14;;;;;;;17.13;9.68;;;;;;;19.32;54.77;101566.47;5050317;28;20086;-75
2022/10/13 10:11:44;;;;;;;18.27;10.00;;;;;;;19.31;54.59;101563.88;5051022;28;20029;-75
2022/10/13 10:14:28;;;;;;;15.43;9.23;;;;;;;19.26;54.59;101569.75;5050761;28;20045;-75
2022/10/13 10:17:05;;;;;;;17.05;10.05;;;;;;;19.25;54.66;101569.91;5051202;28;20426;-74
2022/10/13 10:19:42;;;;;;;15.63;9.82;;;;;;;19.22;54.56;101567.47;5050127;28;20376;-75
2022/10/13 10:22:08;;;;;;;17.08;9.48;;;;;;;19.21;54.64;101563.91;5050603;28;20033;-75
2022/10/13 10:24:48;;;;;;;11.48;9.27;;;;;;;19.21;54.38;101565.78;5051017;28;20041;-75
2022/10/13 10:27:29;;;;;;;11.85;8.65;;;;;;;19.22;54.84;101562.03;5049515;28;20049;-75
2022/10/13 10:30:05;;;;;;;12.68;9.40;;;;;;;19.21;54.56;101561.19;5051146;28;20098;-75
2022/10/13 10:32:50;;;;;;;20.33;9.70;;;;;;;19.21;54.77;101565.78;5048504;28;20045;-75
2022/10/13 10:35:39;;;;;;;16.00;9.27;;;;;;;19.20;54.49;101564.91;5050573;28;20033;-76
2022/10/13 10:38:14;;;;;;;11.70;9.15;;;;;;;19.21;54.83;101561.19;5050667;28;20049;-75
2022/10/13 10:40:59;;;;;;;17.45;10.40;;;;;;;19.20;54.63;101564.06;5050701;28;20045;-75
2022/10/13 10:44:00;;;;;;;17.08;9.60;;;;;;;19.15;54.97;101556.31;5030469;28;20034;-76
2022/10/13 10:46:31;;;;;;;17.30;10.27;;;;;;;19.13;54.62;101561.06;5030893;28;20038;-77
2022/10/13 10:49:01;;;;;;;15.23;9.57;;;;;;;19.11;54.94;101554.03;5030977;28;20033;-76
2022/10/13 10:51:35;;;;;;;17.10;10.35;;;;;;;19.10;55.29;101565.94;5035840;28;20049;-76
2022/10/13 10:54:40;;;;;;;18.10;10.32;;;;;;;19.08;55.30;101560.66;5050702;28;20041;-77
2022/10/13 10:57:32;;;;;;;18.90;9.63;;;;;;;19.07;55.11;101560.78;5036005;28;20080;-76
2022/10/13 11:00:12;;;;;;;16.35;9.48;;;;;;;19.05;55.36;101558.22;5049166;28;20120;-76
2022/10/13 11:02:44;;;;;;;16.67;9.95;;;;;;;19.03;55.24;101557.50;5048812;28;20049;-76
2022/10/13 11:05:11;;;;;;;16.05;9.68;;;;;;;19.03;55.40;101561.09;5050434;28;20044;-76
2022/10/13 11:07:37;;;;;;;16.10;10.40;;;;;;;19.04;55.68;101560.06;5049544;28;20045;-76
2022/10/13 11:10:15;;;;;;;20.15;10.07;;;;;;;19.03;55.57;101552.06;5049164;28;20041;-76
2022/10/13 11:12:51;;;;;;;20.08;10.65;;;;;;;19.03;55.43;101542.03;5050131;28;20048;-76
2022/10/13 11:15:22;;;;;;;14.68;10.15;;;;;;;18.99;55.60;101537.88;5050545;28;20029;-76
2022/10/13 11:17:49;;;;;;;15.93;10.15;;;;;;;18.97;55.66;101531.72;5050595;28;20454;-75
2022/10/13 11:20:16;;;;;;;16.35;10.30;;;;;;;18.97;55.82;101530.88;5051846;28;20438;-75
2022/10/13 11:22:58;;;;;;;16.98;10.57;;;;;;;18.97;56.24;101529.00;5051895;28;20041;-75
2022/10/13 11:25:42;;;;;;;15.68;10.63;;;;;;;19.00;56.32;101530.56;5051796;28;20049;-76
2022/10/13 11:28:21;;;;;;;17.10;10.13;;;;;;;19.00;56.34;101531.44;5050505;28;20577;-75
2022/10/13 11:30:49;;;;;;;17.80;10.85;;;;;;;19.02;56.28;101523.13;5049747;28;20045;-73
2022/10/13 11:33:37;;;;;;;15.80;10.48;;;;;;;19.00;56.54;101525.13;5048577;28;20143;-73
2022/10/13 11:36:42;;;;;;;18.17;10.52;;;;;;;19.00;56.59;101519.69;5049265;28;20064;-72